Terminal Aerodrome Forecast
Issued by NWS Twin Cities, MN

Home | Current Version | Previous Version | Graphics & Text | Print | Product List | Glossary On
Versions: 1 2 3 4 5 6 7 8 9 10 11 12 13 14 15
000
FTUS43 KMPX 221124
TAFSTC
TAF
KSTC 221124Z 2212/2312 25003KT P6SM FEW250
     FM221500 18007KT P6SM BKN250
     FM221800 18011KT P6SM OVC050
     FM222100 17012KT P6SM VCSH BKN040 OVC080
     FM230100 16006KT P6SM OVC040
     FM230600 VRB03KT P6SM SCT040
     FM231100 31005KT P6SM SCT150=

USA.gov is the U.S. government's official web portal to all federal, state and local government web resources and services.